createdAt,value
2023-05-03T00:00:56.667Z,98640.38
2023-05-03T00:03:23.990Z,98632.03
2023-05-03T00:05:50.736Z,98619.38
2023-05-03T00:08:17.387Z,98614.00
2023-05-03T00:10:44.107Z,98611.78
2023-05-03T00:13:10.873Z,98609.31
2023-05-03T00:15:37.595Z,98603.50
2023-05-03T00:18:04.367Z,98612.84
2023-05-03T00:20:31.234Z,98609.81
2023-05-03T00:22:57.912Z,98597.63
2023-05-03T00:25:24.647Z,98542.97
2023-05-03T00:27:51.350Z,98531.03
2023-05-03T00:30:19.526Z,98509.41
2023-05-03T00:32:46.416Z,98490.63
2023-05-03T00:35:13.109Z,98490.69
2023-05-03T00:37:40.539Z,98490.88
2023-05-03T00:40:08.928Z,98506.88
2023-05-03T00:42:37.120Z,98500.16
2023-05-03T00:45:06.327Z,98505.53
2023-05-03T00:47:33.345Z,98511.03
2023-05-03T00:50:01.521Z,98509.03
2023-05-03T00:52:29.796Z,98509.09
2023-05-03T00:54:57.628Z,98468.88
2023-05-03T00:57:26.277Z,98431.22
2023-05-03T00:59:53.526Z,98421.31
2023-05-03T01:02:20.340Z,98419.84
2023-05-03T01:04:47.260Z,98420.31
2023-05-03T01:07:28.777Z,98434.09
2023-05-03T01:10:07.661Z,98448.06
2023-05-03T01:13:06.501Z,98453.63
2023-05-03T01:15:46.397Z,98452.19
2023-05-03T01:18:24.415Z,98450.81
2023-05-03T01:20:53.253Z,98450.53
2023-05-03T01:23:55.917Z,98456.81
2023-05-03T01:26:27.655Z,98448.81
2023-05-03T01:28:55.465Z,98458.53
2023-05-03T01:31:35.058Z,98461.38
2023-05-03T01:34:06.567Z,98461.09
2023-05-03T01:36:35.752Z,98461.19
2023-05-03T01:39:10.790Z,98465.88
2023-05-03T01:41:40.725Z,98467.53
2023-05-03T01:44:09.089Z,98465.34
2023-05-03T01:46:42.678Z,98472.63
2023-05-03T01:49:09.459Z,98465.38
2023-05-03T01:51:36.354Z,98466.03
2023-05-03T01:54:03.211Z,98472.41
2023-05-03T01:56:31.859Z,98466.28
2023-05-03T01:58:58.572Z,98470.63
2023-05-03T02:01:25.596Z,98476.59
2023-05-03T02:03:52.433Z,98489.22
2023-05-03T02:06:19.254Z,98487.16
2023-05-03T02:08:46.256Z,98476.31
2023-05-03T02:11:12.899Z,98474.81
2023-05-03T02:13:39.793Z,98474.69
2023-05-03T02:16:06.604Z,98478.44
2023-05-03T02:18:33.903Z,98479.38
2023-05-03T02:21:00.739Z,98456.38
2023-05-03T02:23:27.617Z,98433.25
2023-05-03T02:25:54.248Z,98435.56
2023-05-03T02:28:20.884Z,98446.53
2023-05-03T02:30:47.786Z,98430.91
2023-05-03T02:33:14.491Z,98422.34
2023-05-03T02:35:41.205Z,98423.13
2023-05-03T02:38:07.873Z,98423.13
2023-05-03T02:40:34.635Z,98386.06
2023-05-03T02:43:02.679Z,98360.63
2023-05-03T02:45:30.270Z,98353.38
2023-05-03T02:47:57.147Z,98349.72
2023-05-03T02:50:25.597Z,98346.25
2023-05-03T02:52:52.320Z,98324.16
2023-05-03T02:55:19.048Z,98305.28
2023-05-03T02:57:47.009Z,98310.53
2023-05-03T03:00:18.060Z,98311.91
2023-05-03T03:02:44.838Z,98324.28
2023-05-03T03:05:12.245Z,98332.72
2023-05-03T03:07:40.573Z,98345.53
2023-05-03T03:10:08.295Z,98356.19
2023-05-03T03:12:38.779Z,98340.03
2023-05-03T03:15:09.646Z,98341.28
2023-05-03T03:17:39.651Z,98341.78
2023-05-03T03:20:13.874Z,98341.50
2023-05-03T03:22:45.648Z,98339.16
2023-05-03T03:25:12.551Z,98329.50
2023-05-03T03:27:39.929Z,98344.63
2023-05-03T03:30:08.449Z,98353.72
2023-05-03T03:32:41.546Z,98338.66
2023-05-03T03:35:13.313Z,98332.97
2023-05-03T03:37:40.316Z,98328.16
2023-05-03T03:40:08.241Z,98330.03
2023-05-03T03:42:36.655Z,98318.09
2023-05-03T03:45:04.835Z,98327.84
2023-05-03T03:47:31.650Z,98334.97
2023-05-03T03:50:01.069Z,98332.06
2023-05-03T03:52:30.110Z,98337.16
2023-05-03T03:54:56.847Z,98343.53
2023-05-03T03:57:25.290Z,98351.81
2023-05-03T03:59:52.579Z,98347.31
2023-05-03T04:02:19.288Z,98334.63
2023-05-03T04:04:46.834Z,98318.19
2023-05-03T04:07:15.609Z,98321.88
2023-05-03T04:09:42.513Z,98304.03
2023-05-03T04:12:09.563Z,98305.19
2023-05-03T04:14:36.533Z,98305.97
2023-05-03T04:17:03.353Z,98298.59
2023-05-03T04:19:30.168Z,98298.75
2023-05-03T04:21:56.925Z,98288.03
2023-05-03T04:24:24.318Z,98280.41
2023-05-03T04:26:51.743Z,98277.41
2023-05-03T04:29:25.433Z,98275.19
2023-05-03T04:31:52.317Z,98283.66
2023-05-03T04:34:19.663Z,98285.22
2023-05-03T04:36:49.960Z,98287.25
2023-05-03T04:39:17.056Z,98298.50
2023-05-03T04:41:46.376Z,98287.31
2023-05-03T04:44:14.502Z,98298.59
2023-05-03T04:46:43.518Z,98300.59
2023-05-03T04:49:10.356Z,98302.25
2023-05-03T04:51:37.320Z,98302.50
2023-05-03T04:54:04.206Z,98304.50
2023-05-03T04:56:31.724Z,98316.09
2023-05-03T04:59:09.183Z,98292.25
2023-05-03T05:01:37.511Z,98311.28
2023-05-03T05:04:06.090Z,98322.22
2023-05-03T05:06:39.352Z,98345.41
2023-05-03T05:09:07.672Z,98353.72
2023-05-03T05:11:34.786Z,98360.56
2023-05-03T05:14:01.536Z,98374.91
2023-05-03T05:16:28.418Z,98365.16
2023-05-03T05:18:55.937Z,98386.78
2023-05-03T05:21:25.766Z,98384.13
2023-05-03T05:23:52.675Z,98384.13
2023-05-03T05:26:19.437Z,98374.91
2023-05-03T05:28:46.237Z,98374.94
2023-05-03T05:31:13.614Z,98373.38
2023-05-03T05:33:40.765Z,98378.84
2023-05-03T05:36:08.079Z,98403.22
2023-05-03T05:38:34.959Z,98401.09
2023-05-03T05:41:03.504Z,98419.34
2023-05-03T05:43:32.020Z,98458.56
2023-05-03T05:45:59.290Z,98491.53
2023-05-03T05:48:26.609Z,98508.78
2023-05-03T05:50:53.790Z,98533.53
2023-05-03T05:53:20.617Z,98546.81
2023-05-03T05:55:54.736Z,98554.78
2023-05-03T05:58:21.585Z,98565.47
2023-05-03T06:00:52.834Z,98613.97
2023-05-03T06:03:19.773Z,98592.47
2023-05-03T06:05:49.500Z,98621.19
2023-05-03T06:08:16.281Z,98617.28
2023-05-03T06:10:42.977Z,98626.34
2023-05-03T06:13:09.874Z,98658.94
2023-05-03T06:15:36.993Z,98641.06
2023-05-03T06:18:04.821Z,98679.63
2023-05-03T06:20:31.694Z,98734.59
2023-05-03T06:22:59.143Z,98736.75
2023-05-03T06:25:26.261Z,98748.16
2023-05-03T06:27:53.430Z,98775.00
2023-05-03T06:30:25.828Z,98788.78
2023-05-03T06:32:53.019Z,98799.78
2023-05-03T06:35:22.145Z,98817.81
2023-05-03T06:37:49.712Z,98819.31
2023-05-03T06:40:16.553Z,98845.91
2023-05-03T06:42:43.532Z,98885.50
2023-05-03T06:45:14.231Z,98858.03
2023-05-03T06:47:43.044Z,98852.59
2023-05-03T06:50:10.885Z,98898.22
2023-05-03T06:52:38.263Z,98919.44
2023-05-03T06:55:05.299Z,98942.34
2023-05-03T06:57:32.329Z,98937.47
2023-05-03T06:59:59.512Z,98938.19
2023-05-03T07:02:27.170Z,98925.00
2023-05-03T07:04:54.163Z,98945.63
2023-05-03T07:07:21.316Z,98965.91
2023-05-03T07:09:48.319Z,98961.84
2023-05-03T07:12:15.851Z,98948.09
2023-05-03T07:14:43.050Z,98963.59
2023-05-03T07:17:10.170Z,98928.63
2023-05-03T07:19:37.679Z,98966.78
2023-05-03T07:22:04.528Z,98984.16
2023-05-03T07:24:31.475Z,99026.28
2023-05-03T07:26:58.625Z,99049.38
2023-05-03T07:29:26.298Z,99025.44
2023-05-03T07:31:53.711Z,99032.69
2023-05-03T07:34:21.138Z,99044.88
2023-05-03T07:36:47.955Z,99055.59
2023-05-03T07:39:14.715Z,99067.53
2023-05-03T07:41:41.417Z,99091.47
2023-05-03T07:44:08.291Z,99079.50
2023-05-03T07:46:35.612Z,99074.44
2023-05-03T07:49:07.202Z,99070.13
2023-05-03T07:51:38.633Z,99078.25
2023-05-03T07:54:06.452Z,99066.81
2023-05-03T07:56:33.122Z,99043.53
2023-05-03T08:01:30.163Z,99051.16
2023-05-03T08:03:57.027Z,99052.16
2023-05-03T08:06:27.974Z,99083.94
2023-05-03T08:08:54.690Z,99078.84
2023-05-03T08:11:21.500Z,99083.13
2023-05-03T08:13:48.179Z,99088.63
2023-05-03T08:16:14.994Z,99083.38
2023-05-03T08:18:41.848Z,99086.59
2023-05-03T08:21:09.869Z,99076.06
2023-05-03T08:23:36.888Z,99067.78
2023-05-03T08:26:04.465Z,99074.72
2023-05-03T08:28:31.378Z,99075.41
2023-05-03T08:30:58.483Z,99077.66
2023-05-03T08:33:25.221Z,99088.66
2023-05-03T08:35:52.774Z,99089.88
2023-05-03T08:38:19.429Z,99059.38
2023-05-03T08:40:50.328Z,99083.75
2023-05-03T08:43:20.831Z,99073.00
2023-05-03T08:45:47.703Z,99072.38
2023-05-03T08:48:14.743Z,99068.88
2023-05-03T08:50:44.562Z,99065.94
2023-05-03T08:53:12.026Z,99066.84
2023-05-03T08:55:39.060Z,99073.50
2023-05-03T08:58:13.293Z,99053.41
2023-05-03T09:00:45.248Z,99059.00
2023-05-03T09:03:12.929Z,99065.41
2023-05-03T09:05:41.486Z,99063.44
2023-05-03T09:08:11.368Z,99077.13
2023-05-03T09:10:40.298Z,99072.47
2023-05-03T09:13:08.186Z,99082.53
2023-05-03T09:15:35.561Z,99065.13
2023-05-03T09:18:12.651Z,99082.84
2023-05-03T09:20:41.065Z,99069.66
2023-05-03T09:23:09.735Z,99075.94
2023-05-03T09:25:46.707Z,99066.06
2023-05-03T09:28:14.472Z,99080.56
2023-05-03T09:30:42.392Z,99069.59
2023-05-03T09:33:09.429Z,99070.50
2023-05-03T09:35:36.380Z,99065.63
2023-05-03T09:38:03.093Z,99066.75
2023-05-03T09:40:29.994Z,99073.09
2023-05-03T09:43:10.500Z,99081.72
2023-05-03T09:45:38.677Z,99080.00
2023-05-03T09:48:07.481Z,99083.75
2023-05-03T09:50:36.454Z,99089.66
2023-05-03T09:53:07.620Z,99093.63
2023-05-03T09:55:35.222Z,99098.34
2023-05-03T09:58:08.593Z,99097.16
2023-05-03T10:00:39.306Z,99090.41
2023-05-03T10:03:10.741Z,99078.34
2023-05-03T10:05:43.699Z,99099.03
2023-05-03T10:08:11.578Z,99084.91
2023-05-03T10:10:41.444Z,99074.66
2023-05-03T10:13:09.362Z,99074.38
2023-05-03T10:15:38.688Z,99071.53
2023-05-03T10:18:08.380Z,99071.91
2023-05-03T10:20:50.456Z,99062.91
2023-05-03T10:23:17.937Z,99069.88
2023-05-03T10:26:07.306Z,99053.97
2023-05-03T10:28:34.496Z,99059.41
2023-05-03T10:31:02.507Z,99060.19
2023-05-03T10:33:31.084Z,99060.28
2023-05-03T10:36:00.609Z,99055.13
2023-05-03T10:38:29.081Z,99050.59
2023-05-03T10:40:57.125Z,99043.28
2023-05-03T10:43:32.879Z,99041.66
2023-05-03T10:46:01.195Z,99050.97
2023-05-03T10:48:28.813Z,99060.97
2023-05-03T10:50:56.800Z,99059.00
2023-05-03T10:53:39.691Z,99058.19
2023-05-03T10:56:11.786Z,99064.69
2023-05-03T10:58:44.315Z,99051.38
2023-05-03T11:01:13.370Z,99050.88
2023-05-03T11:03:49.229Z,99034.19
2023-05-03T11:06:36.607Z,99045.19
2023-05-03T11:09:08.557Z,99041.28
2023-05-03T11:11:39.897Z,99039.19
2023-05-03T11:14:08.739Z,99034.94
2023-05-03T11:16:47.816Z,99026.78
2023-05-03T11:19:15.208Z,99023.84
2023-05-03T11:21:43.184Z,99018.06
2023-05-03T11:24:10.260Z,99020.94
2023-05-03T11:26:37.939Z,99016.50
2023-05-03T11:29:05.332Z,99012.97
2023-05-03T11:31:32.704Z,99014.69
2023-05-03T11:33:59.790Z,99013.38
2023-05-03T11:36:28.015Z,99000.16
2023-05-03T11:38:54.983Z,99004.75
2023-05-03T11:41:21.858Z,99008.41
2023-05-03T11:43:57.512Z,99006.94
2023-05-03T11:46:35.154Z,99003.72
2023-05-03T11:49:03.265Z,99000.19
2023-05-03T11:51:31.480Z,99003.31
2023-05-03T11:54:06.804Z,99003.84
2023-05-03T11:56:36.817Z,98999.47
2023-05-03T11:59:04.025Z,99004.66
2023-05-03T12:01:30.843Z,99006.66
2023-05-03T12:04:01.390Z,98987.19
2023-05-03T12:06:32.190Z,98991.38
2023-05-03T12:09:03.545Z,98992.16
2023-05-03T12:11:33.278Z,98984.69
2023-05-03T12:14:03.617Z,98993.25
2023-05-03T12:16:47.555Z,99000.06
2023-05-03T12:19:24.346Z,98994.28
2023-05-03T12:22:04.500Z,98975.09
2023-05-03T12:24:39.440Z,98981.34
2023-05-03T12:27:08.612Z,98970.22
2023-05-03T12:29:35.811Z,98977.25
2023-05-03T12:32:04.426Z,98971.97
2023-05-03T12:34:34.915Z,98962.00
2023-05-03T12:37:04.859Z,98961.53
2023-05-03T12:39:33.227Z,98961.69
2023-05-03T12:44:34.434Z,98962.28
2023-05-03T12:47:02.366Z,98951.63
2023-05-03T12:49:29.433Z,98954.84
2023-05-03T12:54:33.322Z,98946.41
2023-05-03T12:57:08.252Z,98953.41
2023-05-03T12:59:41.748Z,98945.75
2023-05-03T13:04:57.694Z,98949.78
2023-05-03T13:07:32.366Z,98939.47
2023-05-03T13:12:34.324Z,98942.25
2023-05-03T13:15:03.719Z,98938.53
2023-05-03T13:17:31.850Z,98920.41
2023-05-03T13:19:58.579Z,98925.94
2023-05-03T13:22:25.422Z,98917.28
2023-05-03T13:24:52.509Z,98929.59
2023-05-03T13:27:19.321Z,98930.16
2023-05-03T13:29:48.921Z,98924.56
2023-05-03T13:32:16.373Z,98920.47
2023-05-03T13:34:43.388Z,98918.13
2023-05-03T13:37:11.726Z,98916.16
2023-05-03T13:39:38.503Z,98905.44
2023-05-03T13:42:05.499Z,98910.88
2023-05-03T13:44:32.188Z,98906.22
2023-05-03T13:46:58.853Z,98904.25
2023-05-03T13:49:25.734Z,98908.94
2023-05-03T13:51:52.656Z,98899.19
2023-05-03T13:54:19.347Z,98883.31
2023-05-03T13:56:46.203Z,98891.31
2023-05-03T13:59:14.075Z,98885.66
2023-05-03T14:01:41.428Z,98878.06
2023-05-03T14:04:08.453Z,98877.94
2023-05-03T14:06:35.276Z,98883.78
2023-05-03T14:09:03.046Z,98867.38
2023-05-03T14:11:30.605Z,98871.63
2023-05-03T14:13:58.158Z,98858.94
2023-05-03T14:18:56.440Z,98856.19
2023-05-03T14:21:23.204Z,98851.16
2023-05-03T14:23:50.680Z,98850.53
2023-05-03T14:26:18.193Z,98849.31
2023-05-03T14:28:45.180Z,98842.81
2023-05-03T14:31:13.362Z,98835.22
2023-05-03T14:33:40.347Z,98840.47
2023-05-03T14:36:11.030Z,98842.13
2023-05-03T14:38:37.859Z,98835.38
2023-05-03T14:41:04.782Z,98837.28
2023-05-03T14:43:32.071Z,98830.50
2023-05-03T14:45:58.752Z,98830.81
2023-05-03T14:48:25.608Z,98822.97
2023-05-03T14:50:53.237Z,98816.31
2023-05-03T14:53:20.268Z,98814.03
2023-05-03T14:55:47.025Z,98831.25
2023-05-03T14:58:13.983Z,98822.66
2023-05-03T15:00:41.777Z,98822.03
2023-05-03T15:03:12.177Z,98814.44
2023-05-03T15:05:44.139Z,98815.56
2023-05-03T15:08:11.366Z,98813.31
2023-05-03T15:10:39.490Z,98818.00
2023-05-03T15:13:06.574Z,98819.94
2023-05-03T15:15:33.374Z,98814.88
2023-05-03T15:18:00.043Z,98816.09
2023-05-03T15:20:27.351Z,98805.97
2023-05-03T15:22:54.051Z,98812.66
2023-05-03T15:25:20.901Z,98812.88
2023-05-03T15:27:47.665Z,98815.78
2023-05-03T15:30:15.403Z,98808.28
2023-05-03T15:32:42.342Z,98812.66
2023-05-03T15:35:09.657Z,98810.78
2023-05-03T15:37:38.040Z,98809.59
2023-05-03T15:40:06.053Z,98815.09
2023-05-03T15:42:32.922Z,98800.94
2023-05-03T15:44:59.784Z,98805.16
2023-05-03T15:47:27.078Z,98796.91
2023-05-03T15:49:54.384Z,98795.53
2023-05-03T15:52:21.585Z,98799.38
2023-05-03T15:54:48.282Z,98800.13
2023-05-03T15:57:15.182Z,98795.66
2023-05-03T15:59:42.081Z,98793.09
2023-05-03T16:02:09.296Z,98797.19
2023-05-03T16:04:39.062Z,98792.63
2023-05-03T16:07:07.728Z,98796.53
2023-05-03T16:09:34.579Z,98791.03
2023-05-03T16:12:01.489Z,98793.28
2023-05-03T16:14:28.205Z,98795.13
2023-05-03T16:16:55.147Z,98791.25
2023-05-03T16:19:22.518Z,98786.38
2023-05-03T16:21:49.255Z,98790.53
2023-05-03T16:24:16.177Z,98791.22
2023-05-03T16:26:43.100Z,98786.66
2023-05-03T16:29:10.572Z,98791.34
2023-05-03T16:31:37.454Z,98784.94
2023-05-03T16:34:04.471Z,98785.47
2023-05-03T16:36:33.283Z,98787.28
2023-05-03T16:39:00.000Z,98784.44
2023-05-03T16:41:27.041Z,98780.09
2023-05-03T16:43:53.798Z,98776.03
2023-05-03T16:46:21.952Z,98777.84
2023-05-03T16:48:48.690Z,98784.16
2023-05-03T16:51:20.574Z,98777.06
2023-05-03T16:53:47.346Z,98773.66
2023-05-03T16:56:13.997Z,98772.97
2023-05-03T16:58:40.664Z,98764.97
2023-05-03T17:01:08.010Z,98762.97
2023-05-03T17:03:34.938Z,98768.16
2023-05-03T17:06:03.719Z,98773.50
2023-05-03T17:08:30.890Z,98769.34
2023-05-03T17:10:58.030Z,98764.63
2023-05-03T17:13:25.023Z,98765.91
2023-05-03T17:15:51.721Z,98771.78
2023-05-03T17:18:18.521Z,98769.63
2023-05-03T17:20:45.328Z,98761.91
2023-05-03T17:23:12.195Z,98756.38
2023-05-03T17:25:39.029Z,98762.53
2023-05-03T17:28:05.927Z,98760.09
2023-05-03T17:30:32.828Z,98763.97
2023-05-03T17:32:59.616Z,98754.09
2023-05-03T17:35:26.650Z,98757.94
2023-05-03T17:37:53.369Z,98755.78
2023-05-03T17:40:20.131Z,98761.19
2023-05-03T17:42:47.253Z,98753.59
2023-05-03T17:45:14.206Z,98754.69
2023-05-03T17:47:40.989Z,98757.78
2023-05-03T17:50:08.328Z,98758.06
2023-05-03T17:52:35.137Z,98759.91
2023-05-03T17:55:02.797Z,98752.53
2023-05-03T17:57:29.575Z,98758.44
2023-05-03T17:59:56.329Z,98751.97
2023-05-03T18:02:23.474Z,98756.09
2023-05-03T18:04:50.189Z,98752.88
2023-05-03T18:07:16.840Z,98749.78
2023-05-03T18:09:43.766Z,98750.28
2023-05-03T18:12:10.450Z,98744.91
2023-05-03T18:14:37.266Z,98751.81
2023-05-03T18:17:03.936Z,98758.47
2023-05-03T18:19:31.480Z,98755.75
2023-05-03T18:21:58.139Z,98754.13
2023-05-03T18:24:24.839Z,98756.00
2023-05-03T18:26:51.479Z,98752.34
2023-05-03T18:29:18.198Z,98753.59
2023-05-03T18:31:45.065Z,98750.84
2023-05-03T18:34:16.751Z,98755.75
2023-05-03T18:36:43.496Z,98753.75
2023-05-03T18:39:10.484Z,98767.16
2023-05-03T18:41:37.679Z,98763.00
2023-05-03T18:44:04.519Z,98763.13
2023-05-03T18:46:31.255Z,98754.44
2023-05-03T18:48:57.961Z,98758.41
2023-05-03T18:51:24.825Z,98767.22
2023-05-03T18:53:51.871Z,98752.13
2023-05-03T18:56:18.595Z,98753.09
2023-05-03T18:58:47.574Z,98759.03
2023-05-03T19:01:14.315Z,98758.38
2023-05-03T19:03:41.025Z,98757.59
2023-05-03T19:06:07.957Z,98755.28
2023-05-03T19:08:34.886Z,98747.94
2023-05-03T19:11:12.967Z,98744.16
2023-05-03T19:13:40.078Z,98743.06
2023-05-03T19:16:06.888Z,98741.72
2023-05-03T19:18:33.736Z,98749.44
2023-05-03T19:21:01.597Z,98737.53
2023-05-03T19:23:28.231Z,98739.88
2023-05-03T19:25:54.909Z,98737.72
2023-05-03T19:28:21.689Z,98738.50
2023-05-03T19:30:51.677Z,98735.47
2023-05-03T19:33:19.292Z,98747.16
2023-05-03T19:35:46.562Z,98743.69
2023-05-03T19:38:14.493Z,98730.59
2023-05-03T19:40:41.514Z,98738.44
2023-05-03T19:43:08.211Z,98728.63
2023-05-03T19:45:34.890Z,98735.38
2023-05-03T19:48:01.745Z,98735.56
2023-05-03T19:50:28.466Z,98728.47
2023-05-03T19:52:55.103Z,98727.91
2023-05-03T19:55:21.767Z,98719.75
2023-05-03T19:57:48.447Z,98722.00
2023-05-03T20:00:16.664Z,98720.81
2023-05-03T20:02:43.425Z,98724.19
2023-05-03T20:05:10.142Z,98718.69
2023-05-03T20:07:37.557Z,98726.50
2023-05-03T20:10:05.814Z,98723.34
2023-05-03T20:12:33.996Z,98717.44
2023-05-03T20:15:00.968Z,98702.72
2023-05-03T20:17:27.827Z,98717.53
2023-05-03T20:19:54.759Z,98707.38
2023-05-03T20:22:21.697Z,98696.78
2023-05-03T20:24:49.644Z,98709.72
2023-05-03T20:27:17.311Z,98694.63
2023-05-03T20:29:44.004Z,98698.38
2023-05-03T20:32:10.752Z,98704.59
2023-05-03T20:34:37.739Z,98696.69
2023-05-03T20:37:04.439Z,98683.88
2023-05-03T20:39:31.186Z,98673.56
2023-05-03T20:41:58.458Z,98676.66
2023-05-03T20:44:25.128Z,98671.97
2023-05-03T20:46:51.860Z,98671.09
2023-05-03T20:49:18.728Z,98682.44
2023-05-03T20:51:45.481Z,98679.63
2023-05-03T20:54:12.126Z,98677.38
2023-05-03T20:56:38.786Z,98675.69
2023-05-03T20:59:05.748Z,98671.31
2023-05-03T21:01:32.564Z,98664.06
2023-05-03T21:03:59.365Z,98661.78
2023-05-03T21:06:27.335Z,98651.31
2023-05-03T21:08:54.027Z,98646.66
2023-05-03T21:11:21.029Z,98649.06
2023-05-03T21:13:47.678Z,98646.34
2023-05-03T21:16:14.501Z,98652.91
2023-05-03T21:18:41.322Z,98646.59
2023-05-03T21:21:08.051Z,98645.88
2023-05-03T21:23:34.802Z,98657.47
2023-05-03T21:26:01.527Z,98646.91
2023-05-03T21:28:30.577Z,98651.97
2023-05-03T21:30:57.298Z,98637.53
2023-05-03T21:33:23.965Z,98645.91
2023-05-03T21:35:50.710Z,98647.44
2023-05-03T21:38:18.015Z,98635.63
2023-05-03T21:40:47.070Z,98635.53
2023-05-03T21:43:13.773Z,98626.97
2023-05-03T21:45:48.380Z,98633.59
2023-05-03T21:48:15.242Z,98632.09
2023-05-03T21:50:41.981Z,98619.16
2023-05-03T21:53:08.679Z,98621.59
2023-05-03T21:55:35.666Z,98619.22
2023-05-03T21:58:02.334Z,98599.72
2023-05-03T22:00:29.124Z,98585.03
2023-05-03T22:02:55.961Z,98573.38
2023-05-03T22:05:22.743Z,98586.81
2023-05-03T22:07:49.489Z,98595.53
2023-05-03T22:10:16.591Z,98591.91
2023-05-03T22:12:43.570Z,98595.03
2023-05-03T22:15:11.103Z,98593.38
2023-05-03T22:17:38.184Z,98587.09
2023-05-03T22:20:06.726Z,98574.25
2023-05-03T22:22:33.606Z,98582.78
2023-05-03T22:25:00.625Z,98571.72
2023-05-03T22:27:27.453Z,98583.34
2023-05-03T22:29:54.263Z,98588.78
2023-05-03T22:32:21.080Z,98564.72
2023-05-03T22:34:47.869Z,98560.09
2023-05-03T22:37:15.337Z,98567.56
2023-05-03T22:39:42.310Z,98561.09
2023-05-03T22:42:09.009Z,98565.81
2023-05-03T22:44:36.979Z,98549.84
2023-05-03T22:47:03.702Z,98557.75
2023-05-03T22:49:30.499Z,98543.34
2023-05-03T22:51:57.137Z,98553.84
2023-05-03T22:54:24.062Z,98559.06
2023-05-03T22:56:51.278Z,98535.66
2023-05-03T22:59:17.999Z,98526.56
2023-05-03T23:01:46.251Z,98522.41
2023-05-03T23:04:13.281Z,98518.56
2023-05-03T23:06:39.952Z,98515.00
2023-05-03T23:09:06.662Z,98502.34
2023-05-03T23:11:33.723Z,98510.56
2023-05-03T23:14:00.671Z,98502.84
2023-05-03T23:16:27.571Z,98494.59
2023-05-03T23:18:55.681Z,98476.75
2023-05-03T23:21:22.610Z,98473.44
2023-05-03T23:23:49.455Z,98462.28
2023-05-03T23:26:16.475Z,98462.84
2023-05-03T23:28:43.586Z,98467.75
2023-05-03T23:31:10.578Z,98464.13
2023-05-03T23:33:37.776Z,98474.22
2023-05-03T23:36:04.611Z,98479.69
2023-05-03T23:38:31.792Z,98477.66
2023-05-03T23:40:58.530Z,98467.81
2023-05-03T23:43:25.207Z,98465.00
2023-05-03T23:45:51.884Z,98460.56
2023-05-03T23:48:18.654Z,98480.19
2023-05-03T23:50:45.261Z,98459.34
2023-05-03T23:53:12.001Z,98446.63
2023-05-03T23:55:38.816Z,98451.03
2023-05-03T23:58:05.571Z,98443.78
